Port Clements, Canada
Current Conditions -  °F | °C
As of 6:00 PM on Thursday 20 Nov 2014 (Local Time) from CZMT Reporting Station
Overcast Overcast  
Wind Chill:   Ceiling: 2000
Heat Index:   Visibility: 15mi
Dew Point:   Wind: 2mph
Humidity: 93%   Direction: NA
Pressure: 29.43"   Gusts: NA
Location:  53.68°N, 132.17°W
Report Text: CZMT 210200Z VRB02KT 15SM SCT015 BKN020 OVC030 08/07 A2943 RMK SC3SC3SC2 LAST OBS/NEXT 211500 UTC SLP965
Loading
Personal Weather Stations






























Interactive Weather Map New forecast layout! Learn more

10-Day Weather Forecast

Advertisements
Track Severe Weather on mobile